createdAt,value
2019-03-29T00:01:12.007Z,9.00
2019-03-29T00:03:40.454Z,9.10
2019-03-29T00:06:08.889Z,9.10
2019-03-29T00:08:37.340Z,8.90
2019-03-29T00:11:05.760Z,8.90
2019-03-29T00:13:34.209Z,8.90
2019-03-29T00:16:02.631Z,9.00
2019-03-29T00:18:31.526Z,9.10
2019-03-29T00:20:59.960Z,9.10
2019-03-29T00:23:28.371Z,9.10
2019-03-29T00:25:56.790Z,9.10
2019-03-29T00:28:25.244Z,9.10
2019-03-29T00:30:53.685Z,9.10
2019-03-29T00:33:22.119Z,9.10
2019-03-29T00:35:50.565Z,9.10
2019-03-29T00:38:19.091Z,9.00
2019-03-29T00:40:47.549Z,9.00
2019-03-29T00:43:16.731Z,9.00
2019-03-29T00:45:45.188Z,9.10
2019-03-29T00:48:14.306Z,9.10
2019-03-29T00:50:42.722Z,9.10
2019-03-29T00:53:11.157Z,9.00
2019-03-29T00:55:39.606Z,9.00
2019-03-29T00:58:08.026Z,8.90
2019-03-29T01:00:36.443Z,8.90
2019-03-29T01:03:04.897Z,8.90
2019-03-29T01:05:33.347Z,8.80
2019-03-29T01:08:07.613Z,8.80
2019-03-29T01:10:32.001Z,8.80
2019-03-29T01:13:00.445Z,8.80
2019-03-29T01:15:28.886Z,8.90
2019-03-29T01:17:57.325Z,8.90
2019-03-29T01:20:25.767Z,8.90
2019-03-29T01:22:54.254Z,8.90
2019-03-29T01:25:22.676Z,8.80
2019-03-29T01:27:51.126Z,8.90
2019-03-29T01:30:19.549Z,9.00
2019-03-29T01:32:48.003Z,9.00
2019-03-29T01:35:16.425Z,9.00
2019-03-29T01:37:45.989Z,9.00
2019-03-29T01:40:14.657Z,9.00
2019-03-29T01:42:43.343Z,9.00
2019-03-29T01:45:12.146Z,8.80
2019-03-29T01:47:40.570Z,9.00
2019-03-29T01:50:09.264Z,9.00
2019-03-29T01:52:37.676Z,9.00
2019-03-29T01:55:07.479Z,9.00
2019-03-29T01:57:36.071Z,8.80
2019-03-29T02:00:07.253Z,8.70
2019-03-29T02:02:35.716Z,8.60
2019-03-29T02:05:06.622Z,8.30
2019-03-29T02:07:35.043Z,8.50
2019-03-29T02:10:04.742Z,8.60
2019-03-29T02:16:14.348Z,8.50
2019-03-29T02:18:42.790Z,8.20
2019-03-29T02:21:11.323Z,7.90
2019-03-29T02:23:39.751Z,7.70
2019-03-29T02:26:08.217Z,7.90
2019-03-29T02:28:37.394Z,8.00
2019-03-29T02:31:05.825Z,7.90
2019-03-29T02:33:34.278Z,7.70
2019-03-29T02:36:02.739Z,7.60
2019-03-29T02:38:31.161Z,7.40
2019-03-29T02:40:59.615Z,7.40
2019-03-29T02:43:28.020Z,7.40
2019-03-29T02:45:57.586Z,7.50
2019-03-29T02:48:26.181Z,7.60
2019-03-29T02:50:55.327Z,7.70
2019-03-29T02:53:23.836Z,7.70
2019-03-29T02:55:52.276Z,7.80
2019-03-29T02:58:21.407Z,8.00
2019-03-29T03:00:49.854Z,8.00
2019-03-29T03:03:18.305Z,8.00
2019-03-29T03:05:46.818Z,7.90
2019-03-29T03:08:15.332Z,7.80
2019-03-29T03:10:43.777Z,7.90
2019-03-29T03:13:12.210Z,7.80
2019-03-29T03:15:40.846Z,8.00
2019-03-29T03:18:09.272Z,8.00
2019-03-29T03:20:37.713Z,8.00
2019-03-29T03:23:06.274Z,7.90
2019-03-29T03:25:34.989Z,8.00
2019-03-29T03:28:03.578Z,7.90
2019-03-29T03:30:32.066Z,8.00
2019-03-29T03:33:00.546Z,7.90
2019-03-29T03:35:28.997Z,7.80
2019-03-29T03:37:57.442Z,7.80
2019-03-29T03:40:25.882Z,7.90
2019-03-29T03:42:54.314Z,7.80
2019-03-29T03:45:22.886Z,7.80
2019-03-29T03:47:51.320Z,7.70
2019-03-29T03:50:34.898Z,7.50
2019-03-29T03:53:03.360Z,7.60
2019-03-29T03:55:33.326Z,7.50
2019-03-29T03:58:03.749Z,7.30
2019-03-29T04:00:40.965Z,7.10
2019-03-29T04:03:09.423Z,7.40
2019-03-29T04:05:37.901Z,7.50
2019-03-29T04:08:06.462Z,7.60
2019-03-29T04:10:35.023Z,7.60
2019-03-29T04:13:03.455Z,7.40
2019-03-29T04:15:31.905Z,7.40
2019-03-29T04:18:00.327Z,7.40
2019-03-29T04:20:28.772Z,7.30
2019-03-29T04:22:57.222Z,7.30
2019-03-29T04:25:25.679Z,7.00
2019-03-29T04:27:54.148Z,6.90
2019-03-29T04:30:22.639Z,6.80
2019-03-29T04:32:51.054Z,7.00
2019-03-29T04:35:19.510Z,7.10
2019-03-29T04:37:47.955Z,7.30
2019-03-29T04:40:17.068Z,7.50
2019-03-29T04:42:45.536Z,7.30
2019-03-29T04:45:13.986Z,7.00
2019-03-29T04:47:42.444Z,7.00
2019-03-29T04:50:10.957Z,7.00
2019-03-29T04:52:45.334Z,7.00
2019-03-29T04:55:13.880Z,7.00
2019-03-29T04:57:42.318Z,7.20
2019-03-29T05:00:11.013Z,7.50
2019-03-29T05:02:39.435Z,7.70
2019-03-29T05:05:08.006Z,7.80
2019-03-29T05:07:37.106Z,7.80
2019-03-29T05:10:20.308Z,7.60
2019-03-29T05:12:37.789Z,7.40
2019-03-29T05:15:06.458Z,7.20
2019-03-29T05:17:34.919Z,7.10
2019-03-29T05:20:04.579Z,6.80
2019-03-29T05:22:33.048Z,6.60
2019-03-29T05:25:01.738Z,6.50
2019-03-29T05:27:30.174Z,6.70
2019-03-29T05:29:58.628Z,6.80
2019-03-29T05:32:27.584Z,6.50
2019-03-29T05:34:56.011Z,6.50
2019-03-29T05:37:24.456Z,6.40
2019-03-29T05:39:52.889Z,6.40
2019-03-29T05:42:21.323Z,6.50
2019-03-29T05:44:49.806Z,6.70
2019-03-29T05:47:18.322Z,6.70
2019-03-29T05:49:46.791Z,6.70
2019-03-29T05:52:15.246Z,6.80
2019-03-29T05:54:43.687Z,6.80
2019-03-29T05:57:12.152Z,6.80
2019-03-29T05:59:40.576Z,6.80
2019-03-29T06:02:09.048Z,6.80
2019-03-29T06:04:43.592Z,7.00
2019-03-29T06:07:12.034Z,7.30
2019-03-29T06:09:40.467Z,7.20
2019-03-29T06:12:08.918Z,7.30
2019-03-29T06:14:37.369Z,7.40
2019-03-29T06:17:05.896Z,7.60
2019-03-29T06:19:34.333Z,7.70
2019-03-29T06:22:02.771Z,7.70
2019-03-29T06:24:31.219Z,7.60
2019-03-29T06:26:59.654Z,7.70
2019-03-29T06:29:28.087Z,7.60
2019-03-29T06:31:56.998Z,7.50
2019-03-29T06:34:25.443Z,7.50
2019-03-29T06:36:54.125Z,7.50
2019-03-29T06:39:25.922Z,7.60
2019-03-29T06:41:54.381Z,7.50
2019-03-29T06:44:22.811Z,7.60
2019-03-29T06:46:51.259Z,7.60
2019-03-29T06:49:19.721Z,7.70
2019-03-29T06:51:48.144Z,7.80
2019-03-29T06:54:16.639Z,7.90
2019-03-29T06:56:45.074Z,8.00
2019-03-29T06:59:13.507Z,8.00
2019-03-29T07:01:41.946Z,8.10
2019-03-29T07:04:10.371Z,8.20
2019-03-29T07:06:38.794Z,8.20
2019-03-29T07:09:07.255Z,8.20
2019-03-29T07:11:35.691Z,8.30
2019-03-29T07:14:04.133Z,8.30
2019-03-29T07:16:32.589Z,8.40
2019-03-29T07:19:01.082Z,8.40
2019-03-29T07:21:29.580Z,8.50
2019-03-29T07:23:58.048Z,8.60
2019-03-29T07:26:26.550Z,8.60
2019-03-29T07:28:54.982Z,8.60
2019-03-29T07:31:23.407Z,8.60
2019-03-29T07:33:51.839Z,8.60
2019-03-29T07:36:20.270Z,8.70
2019-03-29T07:38:48.725Z,8.80
2019-03-29T07:41:30.766Z,8.80
2019-03-29T07:43:47.332Z,8.80
2019-03-29T07:46:15.762Z,8.90
2019-03-29T07:48:44.211Z,8.90
2019-03-29T07:51:12.722Z,9.00
2019-03-29T07:53:44.552Z,9.10
2019-03-29T07:56:11.320Z,9.10
2019-03-29T07:58:39.755Z,9.10
2019-03-29T08:01:08.516Z,9.20
2019-03-29T08:03:37.205Z,9.30
2019-03-29T08:06:05.624Z,9.30
2019-03-29T08:08:34.475Z,9.40
2019-03-29T08:11:03.403Z,9.50
2019-03-29T08:13:31.854Z,9.60
2019-03-29T08:16:00.288Z,9.60
2019-03-29T08:18:28.797Z,9.70
2019-03-29T08:20:57.232Z,9.80
2019-03-29T08:23:28.691Z,9.80
2019-03-29T08:25:55.840Z,9.90
2019-03-29T08:28:24.298Z,10.00
2019-03-29T08:30:52.738Z,10.10
2019-03-29T08:33:21.219Z,10.20
2019-03-29T08:35:49.639Z,10.30
2019-03-29T08:38:18.075Z,10.20
2019-03-29T08:40:46.520Z,10.30
2019-03-29T08:43:15.035Z,10.40
2019-03-29T08:45:43.463Z,10.80
2019-03-29T08:48:11.923Z,10.80
2019-03-29T08:50:40.344Z,10.90
2019-03-29T08:53:08.779Z,10.90
2019-03-29T08:55:45.566Z,10.80
2019-03-29T08:58:07.394Z,11.00
2019-03-29T09:00:35.905Z,10.90
2019-03-29T09:03:04.330Z,11.00
2019-03-29T09:05:32.768Z,11.30
2019-03-29T09:08:01.198Z,11.40
2019-03-29T09:10:29.689Z,11.30
2019-03-29T09:12:58.123Z,11.60
2019-03-29T09:15:26.531Z,11.60
2019-03-29T09:17:55.043Z,11.60
2019-03-29T09:20:23.490Z,11.50
2019-03-29T09:22:51.936Z,11.50
2019-03-29T09:25:21.173Z,11.60
2019-03-29T09:27:49.856Z,11.50
2019-03-29T09:30:18.414Z,12.00
2019-03-29T09:32:46.851Z,11.90
2019-03-29T09:35:15.337Z,11.80
2019-03-29T09:37:43.782Z,11.80
2019-03-29T09:40:13.904Z,12.00
2019-03-29T09:42:42.369Z,12.10
2019-03-29T09:45:13.902Z,12.30
2019-03-29T09:47:42.587Z,12.00
2019-03-29T09:50:11.841Z,12.20
2019-03-29T09:52:40.353Z,12.30
2019-03-29T09:55:09.154Z,12.70
2019-03-29T09:57:38.254Z,12.90
2019-03-29T10:00:19.038Z,12.80
2019-03-29T10:02:37.957Z,12.70
2019-03-29T10:05:07.193Z,13.00
2019-03-29T10:07:35.722Z,13.20
2019-03-29T10:10:05.597Z,13.20
2019-03-29T10:12:43.170Z,12.90
2019-03-29T10:15:05.658Z,12.90
2019-03-29T10:17:34.128Z,13.00
2019-03-29T10:20:02.834Z,13.00
2019-03-29T10:22:31.249Z,13.30
2019-03-29T10:25:02.086Z,13.70
2019-03-29T10:27:30.064Z,13.60
2019-03-29T10:29:58.592Z,13.80
2019-03-29T10:32:27.286Z,14.30
2019-03-29T10:34:55.717Z,14.00
2019-03-29T10:37:24.309Z,14.00
2019-03-29T10:39:53.323Z,14.00
2019-03-29T10:42:21.764Z,14.10
2019-03-29T10:44:50.260Z,14.20
2019-03-29T10:47:18.681Z,14.10
2019-03-29T10:49:47.183Z,14.40
2019-03-29T10:52:15.609Z,14.60
2019-03-29T10:54:44.049Z,14.70
2019-03-29T10:57:12.481Z,14.70
2019-03-29T10:59:52.903Z,14.70
2019-03-29T11:02:21.705Z,14.70
2019-03-29T11:04:50.141Z,14.80
2019-03-29T11:07:18.551Z,14.80
2019-03-29T11:09:47.046Z,14.70
2019-03-29T11:12:15.476Z,14.80
2019-03-29T11:14:43.914Z,14.90
2019-03-29T11:17:12.589Z,15.10
2019-03-29T11:19:41.036Z,15.20
2019-03-29T11:22:09.470Z,15.30
2019-03-29T11:24:37.909Z,15.50
2019-03-29T11:27:06.327Z,15.70
2019-03-29T11:29:34.774Z,15.80
2019-03-29T11:32:03.191Z,16.00
2019-03-29T11:34:31.637Z,16.00
2019-03-29T11:37:00.051Z,15.80
2019-03-29T11:39:28.526Z,15.90
2019-03-29T11:41:56.983Z,16.10
2019-03-29T11:44:25.426Z,16.40
2019-03-29T11:46:53.842Z,16.00
2019-03-29T11:49:22.275Z,16.20
2019-03-29T11:51:50.701Z,16.50
2019-03-29T11:54:19.143Z,16.60
2019-03-29T11:56:47.886Z,16.20
2019-03-29T11:59:16.469Z,16.20
2019-03-29T12:01:44.878Z,16.10
2019-03-29T12:04:13.297Z,16.50
2019-03-29T12:06:41.730Z,16.30
2019-03-29T12:09:10.153Z,16.40
2019-03-29T12:11:40.920Z,16.90
2019-03-29T12:14:08.819Z,17.10
2019-03-29T12:16:37.245Z,16.90
2019-03-29T12:19:05.666Z,17.00
2019-03-29T12:21:34.999Z,16.70
2019-03-29T12:24:03.487Z,16.40
2019-03-29T12:26:31.917Z,16.40
2019-03-29T12:29:00.424Z,16.50
2019-03-29T12:31:28.846Z,16.90
2019-03-29T12:33:57.270Z,17.10
2019-03-29T12:36:25.774Z,17.20
2019-03-29T12:38:54.633Z,17.00
2019-03-29T12:41:23.049Z,16.70
2019-03-29T12:43:55.753Z,17.30
2019-03-29T12:46:26.434Z,17.00
2019-03-29T12:48:54.852Z,17.40
2019-03-29T12:51:23.274Z,17.60
2019-03-29T12:53:51.700Z,17.70
2019-03-29T12:56:20.119Z,17.70
2019-03-29T12:58:48.548Z,17.70
2019-03-29T13:01:17.058Z,17.90
2019-03-29T13:03:45.484Z,17.50
2019-03-29T13:06:13.910Z,17.70
2019-03-29T13:08:42.329Z,17.50
2019-03-29T13:11:10.767Z,18.00
2019-03-29T13:13:39.172Z,17.80
2019-03-29T13:16:07.593Z,18.00
2019-03-29T13:18:36.030Z,18.00
2019-03-29T13:21:04.461Z,18.30
2019-03-29T13:23:32.885Z,18.30
2019-03-29T13:26:01.316Z,18.10
2019-03-29T13:28:29.824Z,18.60
2019-03-29T13:30:58.243Z,19.10
2019-03-29T13:33:28.886Z,18.50
2019-03-29T13:35:56.820Z,18.40
2019-03-29T13:38:25.239Z,18.60
2019-03-29T13:40:54.133Z,18.70
2019-03-29T13:43:22.545Z,18.70
2019-03-29T13:45:50.979Z,18.80
2019-03-29T13:48:19.409Z,18.40
2019-03-29T13:50:47.974Z,18.50
2019-03-29T13:53:16.492Z,18.60
2019-03-29T13:55:44.921Z,18.80
2019-03-29T13:58:13.347Z,18.60
2019-03-29T14:00:41.779Z,18.70
2019-03-29T14:03:10.202Z,18.80
2019-03-29T14:05:38.667Z,19.30
2019-03-29T14:08:07.131Z,19.40
2019-03-29T14:10:35.561Z,18.70
2019-03-29T14:13:04.057Z,18.70
2019-03-29T14:15:32.505Z,19.70
2019-03-29T14:18:00.920Z,20.30
2019-03-29T14:20:31.216Z,20.70
2019-03-29T14:23:00.697Z,20.80
2019-03-29T14:25:29.126Z,19.80
2019-03-29T14:27:57.572Z,19.30
2019-03-29T14:30:26.236Z,19.60
2019-03-29T14:32:54.675Z,19.60
2019-03-29T14:35:23.096Z,20.00
2019-03-29T14:37:51.530Z,20.60
2019-03-29T14:40:19.967Z,20.20
2019-03-29T14:42:48.402Z,19.30
2019-03-29T14:45:16.897Z,19.20
2019-03-29T14:47:45.593Z,19.40
2019-03-29T14:50:14.561Z,19.00
2019-03-29T14:52:42.994Z,19.10
2019-03-29T14:55:11.686Z,19.30
2019-03-29T14:57:40.098Z,19.50
2019-03-29T15:00:11.316Z,19.60
2019-03-29T15:02:39.897Z,18.90
2019-03-29T15:05:08.987Z,18.80
2019-03-29T15:07:37.598Z,19.60
2019-03-29T15:10:26.457Z,19.60
2019-03-29T15:12:55.851Z,19.60
2019-03-29T15:15:25.022Z,18.90
2019-03-29T15:17:53.477Z,18.90
2019-03-29T15:20:22.230Z,18.80
2019-03-29T15:22:50.666Z,19.70
2019-03-29T15:25:19.221Z,20.50
2019-03-29T15:27:47.665Z,20.00
2019-03-29T15:30:17.698Z,19.50
2019-03-29T15:32:46.160Z,20.10
2019-03-29T15:35:14.774Z,19.40
2019-03-29T15:37:43.197Z,19.40
2019-03-29T15:40:11.740Z,19.60
2019-03-29T15:42:40.187Z,19.70
2019-03-29T15:45:19.611Z,20.20
2019-03-29T15:47:40.507Z,20.10
2019-03-29T15:50:09.254Z,20.20
2019-03-29T15:52:37.704Z,20.30
2019-03-29T15:55:07.182Z,20.10
2019-03-29T15:57:35.600Z,20.10
2019-03-29T16:00:08.881Z,19.90
2019-03-29T16:02:37.329Z,19.60
2019-03-29T16:05:06.121Z,19.50
2019-03-29T16:07:35.026Z,19.50
2019-03-29T16:10:03.855Z,19.20
2019-03-29T16:12:32.294Z,19.20
2019-03-29T16:15:00.773Z,19.40
2019-03-29T16:17:29.285Z,19.00
2019-03-29T16:19:57.965Z,19.50
2019-03-29T16:22:26.423Z,19.60
2019-03-29T16:24:54.863Z,19.50
2019-03-29T16:27:25.133Z,19.20
2019-03-29T16:29:53.582Z,19.60
2019-03-29T16:32:22.002Z,19.40
2019-03-29T16:34:50.774Z,19.60
2019-03-29T16:37:19.453Z,19.50
2019-03-29T16:39:47.862Z,19.20
2019-03-29T16:42:16.318Z,19.10
2019-03-29T16:44:44.736Z,19.20
2019-03-29T16:47:13.177Z,19.10
2019-03-29T16:49:41.581Z,19.10
2019-03-29T16:52:10.017Z,19.00
2019-03-29T16:54:39.950Z,18.80
2019-03-29T16:57:08.355Z,18.80
2019-03-29T16:59:36.792Z,18.90
2019-03-29T17:02:05.299Z,18.80
2019-03-29T17:04:33.752Z,18.70
2019-03-29T17:07:02.170Z,18.70
2019-03-29T17:09:30.609Z,18.70
2019-03-29T17:11:59.209Z,18.40
2019-03-29T17:14:27.635Z,18.40
2019-03-29T17:16:56.054Z,18.10
2019-03-29T17:19:24.481Z,18.00
2019-03-29T17:21:52.918Z,18.00
2019-03-29T17:24:21.338Z,17.80
2019-03-29T17:26:49.761Z,17.40
2019-03-29T17:29:18.189Z,17.30
2019-03-29T17:31:46.597Z,17.20
2019-03-29T17:34:15.036Z,17.10
2019-03-29T17:36:43.487Z,17.20
2019-03-29T17:39:11.908Z,17.10
2019-03-29T17:41:40.314Z,17.00
2019-03-29T17:44:08.753Z,17.00
2019-03-29T17:46:37.188Z,17.00
2019-03-29T17:49:05.661Z,16.90
2019-03-29T17:51:34.062Z,16.90
2019-03-29T17:54:02.491Z,16.70
2019-03-29T17:56:30.925Z,16.60
2019-03-29T17:58:59.354Z,16.50
2019-03-29T18:01:27.758Z,16.50
2019-03-29T18:03:56.193Z,16.50
2019-03-29T18:06:24.616Z,16.40
2019-03-29T18:08:53.049Z,16.30
2019-03-29T18:11:21.457Z,16.10
2019-03-29T18:13:49.907Z,15.80
2019-03-29T18:16:30.096Z,15.60
2019-03-29T18:18:48.495Z,15.40
2019-03-29T18:21:16.944Z,15.30
2019-03-29T18:23:45.360Z,15.30
2019-03-29T18:26:13.797Z,15.30
2019-03-29T18:28:42.209Z,15.30
2019-03-29T18:31:10.663Z,15.20
2019-03-29T18:33:39.267Z,15.20
2019-03-29T18:36:07.791Z,15.20
2019-03-29T18:38:36.684Z,15.10
2019-03-29T18:41:05.116Z,15.00
2019-03-29T18:43:33.544Z,14.90
2019-03-29T18:46:02.085Z,14.80
2019-03-29T18:48:30.500Z,14.70
2019-03-29T18:50:58.933Z,14.60
2019-03-29T18:53:27.369Z,14.50
2019-03-29T18:55:55.888Z,14.60
2019-03-29T18:58:24.321Z,14.60
2019-03-29T19:00:59.197Z,14.60
2019-03-29T19:03:27.685Z,14.60
2019-03-29T19:05:56.122Z,14.50
2019-03-29T19:08:24.550Z,14.20
2019-03-29T19:10:52.995Z,14.00
2019-03-29T19:13:21.436Z,13.80
2019-03-29T19:15:49.932Z,13.80
2019-03-29T19:18:18.390Z,13.80
2019-03-29T19:20:46.825Z,13.80
2019-03-29T19:23:15.253Z,13.90
2019-03-29T19:25:43.699Z,13.90
2019-03-29T19:28:12.117Z,13.90
2019-03-29T19:30:40.540Z,13.70
2019-03-29T19:33:08.972Z,13.50
2019-03-29T19:35:37.403Z,13.40
2019-03-29T19:38:05.818Z,13.50
2019-03-29T19:40:34.285Z,13.40
2019-03-29T19:43:05.425Z,13.50
2019-03-29T19:45:34.522Z,13.50
2019-03-29T19:48:03.171Z,13.30
2019-03-29T19:50:31.613Z,13.30
2019-03-29T19:53:00.034Z,13.40
2019-03-29T19:55:28.469Z,13.40
2019-03-29T19:57:57.213Z,13.20
2019-03-29T20:00:36.995Z,12.70
2019-03-29T20:03:05.741Z,12.60
2019-03-29T20:05:34.297Z,12.60
2019-03-29T20:08:02.735Z,12.40
2019-03-29T20:10:31.243Z,12.50
2019-03-29T20:12:59.663Z,12.50
2019-03-29T20:15:28.088Z,12.30
2019-03-29T20:17:56.525Z,12.50
2019-03-29T20:20:26.585Z,12.50
2019-03-29T20:22:56.025Z,12.50
2019-03-29T20:25:24.841Z,12.40
2019-03-29T20:27:53.507Z,12.30
2019-03-29T20:30:21.935Z,12.00
2019-03-29T20:32:50.370Z,11.80
2019-03-29T20:35:18.832Z,11.60
2019-03-29T20:37:47.260Z,11.70
2019-03-29T20:40:15.760Z,11.90
2019-03-29T20:42:45.047Z,11.90
2019-03-29T20:45:13.814Z,12.00
2019-03-29T20:47:44.198Z,12.10
2019-03-29T20:50:16.786Z,11.70
2019-03-29T20:52:49.285Z,11.50
2019-03-29T20:55:17.709Z,11.30
2019-03-29T20:57:46.135Z,11.20
2019-03-29T21:00:15.488Z,11.30
2019-03-29T21:02:43.917Z,11.50
2019-03-29T21:05:12.589Z,11.30
2019-03-29T21:07:41.026Z,11.50
2019-03-29T21:10:09.683Z,11.20
2019-03-29T21:12:38.117Z,11.10
2019-03-29T21:15:06.892Z,11.00
2019-03-29T21:17:35.698Z,10.90
2019-03-29T21:20:06.766Z,11.00
2019-03-29T21:22:35.269Z,10.90
2019-03-29T21:25:06.459Z,11.00
2019-03-29T21:27:34.899Z,10.70
2019-03-29T21:30:03.801Z,10.80
2019-03-29T21:32:32.237Z,11.00
2019-03-29T21:35:00.682Z,10.90
2019-03-29T21:37:29.159Z,10.60
2019-03-29T21:39:57.575Z,10.50
2019-03-29T21:42:26.049Z,10.30
2019-03-29T21:44:54.525Z,10.40
2019-03-29T21:47:23.012Z,10.20
2019-03-29T21:49:53.015Z,10.40
2019-03-29T21:52:21.482Z,10.20
2019-03-29T21:54:50.162Z,10.20
2019-03-29T21:57:18.596Z,10.20
2019-03-29T21:59:47.444Z,10.40
2019-03-29T22:02:15.985Z,10.40
2019-03-29T22:04:44.517Z,10.40
2019-03-29T22:07:13.048Z,10.00
2019-03-29T22:09:41.474Z,9.90
2019-03-29T22:12:09.911Z,10.00
2019-03-29T22:14:38.360Z,10.10
2019-03-29T22:17:06.784Z,9.90
2019-03-29T22:19:35.222Z,9.80
2019-03-29T22:22:03.725Z,10.10
2019-03-29T22:24:32.168Z,10.20
2019-03-29T22:27:00.582Z,10.20
2019-03-29T22:29:29.022Z,10.20
2019-03-29T22:31:57.559Z,10.10
2019-03-29T22:34:25.994Z,10.00
2019-03-29T22:36:54.430Z,10.00
2019-03-29T22:39:22.858Z,10.00
2019-03-29T22:41:51.283Z,10.00
2019-03-29T22:44:19.737Z,9.80
2019-03-29T22:46:48.178Z,9.80
2019-03-29T22:49:16.621Z,9.80
2019-03-29T22:51:45.046Z,9.80
2019-03-29T22:54:13.499Z,9.60
2019-03-29T22:56:41.919Z,9.50
2019-03-29T22:59:10.340Z,9.50
2019-03-29T23:01:41.848Z,9.50
2019-03-29T23:04:10.268Z,9.40
2019-03-29T23:06:38.685Z,9.60
2019-03-29T23:09:11.503Z,9.50
2019-03-29T23:11:38.181Z,9.60
2019-03-29T23:14:06.641Z,9.70
2019-03-29T23:16:35.049Z,9.70
2019-03-29T23:19:06.945Z,9.80
2019-03-29T23:21:33.642Z,9.70
2019-03-29T23:24:02.068Z,9.70
2019-03-29T23:26:30.557Z,9.60
2019-03-29T23:28:59.042Z,9.70
2019-03-29T23:31:27.520Z,9.60
2019-03-29T23:33:55.966Z,9.60
2019-03-29T23:36:24.421Z,9.60
2019-03-29T23:38:52.827Z,9.60
2019-03-29T23:41:21.263Z,9.50
2019-03-29T23:43:55.371Z,9.40
2019-03-29T23:46:23.777Z,9.40
2019-03-29T23:48:52.225Z,9.50
2019-03-29T23:51:20.658Z,9.50
2019-03-29T23:53:49.082Z,9.40
2019-03-29T23:56:17.511Z,9.40
2019-03-29T23:58:45.934Z,9.40
